sensor_id;sensor_type;location;lat;lon;timestamp;P1;durP1;ratioP1;P2;durP2;ratioP2
64208;SDS011;50527;52.414;13.226;2024-03-02T00:02:10;24.10;;;8.70;;
64208;SDS011;50527;52.414;13.226;2024-03-02T00:04:36;24.05;;;9.18;;
64208;SDS011;50527;52.414;13.226;2024-03-02T00:07:02;27.45;;;8.52;;
64208;SDS011;50527;52.414;13.226;2024-03-02T00:09:28;28.80;;;9.30;;
64208;SDS011;50527;52.414;13.226;2024-03-02T00:11:54;30.60;;;10.18;;
64208;SDS011;50527;52.414;13.226;2024-03-02T00:14:20;23.33;;;8.88;;
64208;SDS011;50527;52.414;13.226;2024-03-02T00:16:45;26.13;;;9.15;;
64208;SDS011;50527;52.414;13.226;2024-03-02T00:19:11;19.60;;;8.88;;
64208;SDS011;50527;52.414;13.226;2024-03-02T00:21:36;22.55;;;8.70;;
64208;SDS011;50527;52.414;13.226;2024-03-02T00:24:47;23.48;;;8.35;;
64208;SDS011;50527;52.414;13.226;2024-03-02T00:26:58;20.20;;;8.00;;
64208;SDS011;50527;52.414;13.226;2024-03-02T00:29:24;24.70;;;9.10;;
64208;SDS011;50527;52.414;13.226;2024-03-02T00:31:50;23.95;;;7.93;;
64208;SDS011;50527;52.414;13.226;2024-03-02T00:34:15;22.90;;;9.30;;
64208;SDS011;50527;52.414;13.226;2024-03-02T00:36:42;20.33;;;8.45;;
64208;SDS011;50527;52.414;13.226;2024-03-02T00:39:08;28.83;;;8.48;;
64208;SDS011;50527;52.414;13.226;2024-03-02T00:41:33;22.02;;;9.15;;
64208;SDS011;50527;52.414;13.226;2024-03-02T00:44:01;24.70;;;8.35;;
64208;SDS011;50527;52.414;13.226;2024-03-02T00:46:27;27.80;;;8.77;;
64208;SDS011;50527;52.414;13.226;2024-03-02T00:48:58;27.42;;;9.27;;
64208;SDS011;50527;52.414;13.226;2024-03-02T00:51:25;28.05;;;8.93;;
64208;SDS011;50527;52.414;13.226;2024-03-02T00:53:52;30.00;;;9.07;;
64208;SDS011;50527;52.414;13.226;2024-03-02T00:56:22;27.48;;;8.60;;
64208;SDS011;50527;52.414;13.226;2024-03-02T00:58:49;26.23;;;8.40;;
64208;SDS011;50527;52.414;13.226;2024-03-02T01:01:15;25.50;;;8.23;;
64208;SDS011;50527;52.414;13.226;2024-03-02T01:03:41;27.63;;;10.43;;
64208;SDS011;50527;52.414;13.226;2024-03-02T01:06:07;25.80;;;8.52;;
64208;SDS011;50527;52.414;13.226;2024-03-02T01:08:33;24.88;;;8.63;;
64208;SDS011;50527;52.414;13.226;2024-03-02T01:10:59;27.55;;;8.73;;
64208;SDS011;50527;52.414;13.226;2024-03-02T01:13:25;21.95;;;9.05;;
64208;SDS011;50527;52.414;13.226;2024-03-02T01:15:51;26.00;;;8.82;;
64208;SDS011;50527;52.414;13.226;2024-03-02T01:18:16;26.63;;;8.63;;
64208;SDS011;50527;52.414;13.226;2024-03-02T01:20:42;25.25;;;8.45;;
64208;SDS011;50527;52.414;13.226;2024-03-02T01:23:07;24.25;;;8.65;;
64208;SDS011;50527;52.414;13.226;2024-03-02T01:25:33;24.65;;;8.82;;
64208;SDS011;50527;52.414;13.226;2024-03-02T01:27:58;24.92;;;8.82;;
64208;SDS011;50527;52.414;13.226;2024-03-02T01:30:24;20.85;;;8.43;;
64208;SDS011;50527;52.414;13.226;2024-03-02T01:32:49;26.23;;;8.82;;
64208;SDS011;50527;52.414;13.226;2024-03-02T01:35:15;24.48;;;8.88;;
64208;SDS011;50527;52.414;13.226;2024-03-02T01:37:40;22.90;;;8.55;;
64208;SDS011;50527;52.414;13.226;2024-03-02T01:40:06;24.80;;;8.65;;
64208;SDS011;50527;52.414;13.226;2024-03-02T01:42:35;30.77;;;9.02;;
64208;SDS011;50527;52.414;13.226;2024-03-02T01:45:01;22.77;;;8.13;;
64208;SDS011;50527;52.414;13.226;2024-03-02T01:47:27;24.20;;;8.98;;
64208;SDS011;50527;52.414;13.226;2024-03-02T01:49:53;24.15;;;8.07;;
64208;SDS011;50527;52.414;13.226;2024-03-02T01:52:18;21.63;;;8.35;;
64208;SDS011;50527;52.414;13.226;2024-03-02T01:54:43;19.88;;;7.88;;
64208;SDS011;50527;52.414;13.226;2024-03-02T01:57:09;20.55;;;8.15;;
64208;SDS011;50527;52.414;13.226;2024-03-02T01:59:35;24.10;;;8.80;;
64208;SDS011;50527;52.414;13.226;2024-03-02T02:02:00;23.55;;;8.48;;
64208;SDS011;50527;52.414;13.226;2024-03-02T02:04:26;20.55;;;8.63;;
64208;SDS011;50527;52.414;13.226;2024-03-02T02:06:53;27.58;;;8.43;;
64208;SDS011;50527;52.414;13.226;2024-03-02T02:09:18;23.48;;;8.20;;
64208;SDS011;50527;52.414;13.226;2024-03-02T02:11:44;26.27;;;8.10;;
64208;SDS011;50527;52.414;13.226;2024-03-02T02:14:10;24.63;;;8.15;;
64208;SDS011;50527;52.414;13.226;2024-03-02T02:16:36;23.25;;;7.43;;
64208;SDS011;50527;52.414;13.226;2024-03-02T02:19:02;20.67;;;7.35;;
64208;SDS011;50527;52.414;13.226;2024-03-02T02:21:28;21.23;;;8.15;;
64208;SDS011;50527;52.414;13.226;2024-03-02T02:23:53;23.33;;;7.82;;
64208;SDS011;50527;52.414;13.226;2024-03-02T02:26:19;16.17;;;7.10;;
64208;SDS011;50527;52.414;13.226;2024-03-02T02:28:44;22.05;;;7.10;;
64208;SDS011;50527;52.414;13.226;2024-03-02T02:31:15;18.40;;;7.70;;
64208;SDS011;50527;52.414;13.226;2024-03-02T02:33:41;21.67;;;8.15;;
64208;SDS011;50527;52.414;13.226;2024-03-02T02:36:07;19.00;;;7.32;;
64208;SDS011;50527;52.414;13.226;2024-03-02T02:38:33;23.63;;;7.68;;
64208;SDS011;50527;52.414;13.226;2024-03-02T02:41:03;21.55;;;7.30;;
64208;SDS011;50527;52.414;13.226;2024-03-02T02:43:29;24.38;;;7.57;;
64208;SDS011;50527;52.414;13.226;2024-03-02T02:45:54;21.27;;;8.10;;
64208;SDS011;50527;52.414;13.226;2024-03-02T02:48:20;23.08;;;8.20;;
64208;SDS011;50527;52.414;13.226;2024-03-02T02:50:45;25.42;;;8.07;;
64208;SDS011;50527;52.414;13.226;2024-03-02T02:53:11;25.08;;;7.95;;
64208;SDS011;50527;52.414;13.226;2024-03-02T02:55:36;24.35;;;8.65;;
64208;SDS011;50527;52.414;13.226;2024-03-02T02:58:05;21.40;;;8.65;;
64208;SDS011;50527;52.414;13.226;2024-03-02T03:00:31;23.40;;;8.63;;
64208;SDS011;50527;52.414;13.226;2024-03-02T03:02:56;27.30;;;8.90;;
64208;SDS011;50527;52.414;13.226;2024-03-02T03:05:22;26.33;;;8.57;;
64208;SDS011;50527;52.414;13.226;2024-03-02T03:07:47;22.77;;;8.43;;
64208;SDS011;50527;52.414;13.226;2024-03-02T03:10:16;23.95;;;8.52;;
64208;SDS011;50527;52.414;13.226;2024-03-02T03:12:42;31.25;;;8.40;;
64208;SDS011;50527;52.414;13.226;2024-03-02T03:15:08;29.33;;;8.95;;
64208;SDS011;50527;52.414;13.226;2024-03-02T03:17:35;21.02;;;7.68;;
64208;SDS011;50527;52.414;13.226;2024-03-02T03:20:02;27.45;;;8.48;;
64208;SDS011;50527;52.414;13.226;2024-03-02T03:22:28;21.58;;;8.70;;
64208;SDS011;50527;52.414;13.226;2024-03-02T03:24:55;29.15;;;9.43;;
64208;SDS011;50527;52.414;13.226;2024-03-02T03:27:20;26.55;;;9.23;;
64208;SDS011;50527;52.414;13.226;2024-03-02T03:29:46;26.80;;;8.80;;
64208;SDS011;50527;52.414;13.226;2024-03-02T03:32:12;24.08;;;8.48;;
64208;SDS011;50527;52.414;13.226;2024-03-02T03:34:37;24.85;;;8.73;;
64208;SDS011;50527;52.414;13.226;2024-03-02T03:37:03;24.70;;;8.82;;
64208;SDS011;50527;52.414;13.226;2024-03-02T03:39:28;22.10;;;8.48;;
64208;SDS011;50527;52.414;13.226;2024-03-02T03:41:54;24.83;;;7.85;;
64208;SDS011;50527;52.414;13.226;2024-03-02T03:44:20;23.42;;;8.52;;
64208;SDS011;50527;52.414;13.226;2024-03-02T03:46:45;24.67;;;8.07;;
64208;SDS011;50527;52.414;13.226;2024-03-02T03:49:10;27.20;;;8.77;;
64208;SDS011;50527;52.414;13.226;2024-03-02T03:51:36;20.13;;;7.57;;
64208;SDS011;50527;52.414;13.226;2024-03-02T03:54:01;21.38;;;7.90;;
64208;SDS011;50527;52.414;13.226;2024-03-02T03:56:27;25.30;;;8.27;;
64208;SDS011;50527;52.414;13.226;2024-03-02T03:58:52;27.83;;;9.10;;
64208;SDS011;50527;52.414;13.226;2024-03-02T04:01:18;29.73;;;9.30;;
64208;SDS011;50527;52.414;13.226;2024-03-02T04:03:44;22.98;;;7.72;;
64208;SDS011;50527;52.414;13.226;2024-03-02T04:06:10;23.55;;;8.27;;
64208;SDS011;50527;52.414;13.226;2024-03-02T04:08:35;23.38;;;8.98;;
64208;SDS011;50527;52.414;13.226;2024-03-02T04:11:00;26.27;;;8.57;;
64208;SDS011;50527;52.414;13.226;2024-03-02T04:13:27;22.10;;;8.30;;
64208;SDS011;50527;52.414;13.226;2024-03-02T04:15:53;22.00;;;7.40;;
64208;SDS011;50527;52.414;13.226;2024-03-02T04:18:18;26.05;;;8.65;;
64208;SDS011;50527;52.414;13.226;2024-03-02T04:20:44;20.20;;;7.45;;
64208;SDS011;50527;52.414;13.226;2024-03-02T04:23:09;19.60;;;7.68;;
64208;SDS011;50527;52.414;13.226;2024-03-02T04:25:35;20.52;;;8.40;;
64208;SDS011;50527;52.414;13.226;2024-03-02T04:28:01;20.63;;;8.40;;
64208;SDS011;50527;52.414;13.226;2024-03-02T04:30:26;21.10;;;8.07;;
64208;SDS011;50527;52.414;13.226;2024-03-02T04:32:52;23.25;;;7.93;;
64208;SDS011;50527;52.414;13.226;2024-03-02T04:35:17;19.38;;;7.60;;
64208;SDS011;50527;52.414;13.226;2024-03-02T04:37:43;24.70;;;8.52;;
64208;SDS011;50527;52.414;13.226;2024-03-02T04:40:08;20.45;;;8.40;;
64208;SDS011;50527;52.414;13.226;2024-03-02T04:42:35;25.27;;;7.93;;
64208;SDS011;50527;52.414;13.226;2024-03-02T04:45:00;25.25;;;8.02;;
64208;SDS011;50527;52.414;13.226;2024-03-02T04:47:26;21.27;;;8.80;;
64208;SDS011;50527;52.414;13.226;2024-03-02T04:49:52;23.08;;;8.05;;
64208;SDS011;50527;52.414;13.226;2024-03-02T04:52:17;21.05;;;7.65;;
64208;SDS011;50527;52.414;13.226;2024-03-02T04:54:43;23.70;;;7.95;;
64208;SDS011;50527;52.414;13.226;2024-03-02T04:57:27;22.05;;;8.15;;
64208;SDS011;50527;52.414;13.226;2024-03-02T04:59:53;24.25;;;7.97;;
64208;SDS011;50527;52.414;13.226;2024-03-02T05:02:18;20.77;;;7.95;;
64208;SDS011;50527;52.414;13.226;2024-03-02T05:04:44;20.88;;;7.95;;
64208;SDS011;50527;52.414;13.226;2024-03-02T05:07:09;19.42;;;7.20;;
64208;SDS011;50527;52.414;13.226;2024-03-02T05:09:35;18.60;;;7.68;;
64208;SDS011;50527;52.414;13.226;2024-03-02T05:12:00;20.50;;;7.03;;
64208;SDS011;50527;52.414;13.226;2024-03-02T05:14:45;18.05;;;7.18;;
64208;SDS011;50527;52.414;13.226;2024-03-02T05:17:11;20.70;;;7.80;;
64208;SDS011;50527;52.414;13.226;2024-03-02T05:19:36;25.05;;;9.30;;
64208;SDS011;50527;52.414;13.226;2024-03-02T05:22:02;22.30;;;7.95;;
64208;SDS011;50527;52.414;13.226;2024-03-02T05:24:28;21.23;;;8.05;;
64208;SDS011;50527;52.414;13.226;2024-03-02T05:26:53;20.20;;;8.40;;
64208;SDS011;50527;52.414;13.226;2024-03-02T05:29:19;22.20;;;8.30;;
64208;SDS011;50527;52.414;13.226;2024-03-02T05:31:44;21.17;;;8.60;;
64208;SDS011;50527;52.414;13.226;2024-03-02T05:34:10;23.30;;;8.35;;
64208;SDS011;50527;52.414;13.226;2024-03-02T05:36:35;30.10;;;9.52;;
64208;SDS011;50527;52.414;13.226;2024-03-02T05:39:02;24.70;;;8.85;;
64208;SDS011;50527;52.414;13.226;2024-03-02T05:41:29;24.55;;;9.43;;
64208;SDS011;50527;52.414;13.226;2024-03-02T05:43:55;23.98;;;9.13;;
64208;SDS011;50527;52.414;13.226;2024-03-02T05:46:21;25.15;;;8.68;;
64208;SDS011;50527;52.414;13.226;2024-03-02T05:48:47;28.52;;;9.60;;
64208;SDS011;50527;52.414;13.226;2024-03-02T05:51:12;21.75;;;8.55;;
64208;SDS011;50527;52.414;13.226;2024-03-02T05:53:38;24.83;;;9.13;;
64208;SDS011;50527;52.414;13.226;2024-03-02T05:56:04;26.10;;;9.48;;
64208;SDS011;50527;52.414;13.226;2024-03-02T05:58:30;21.98;;;8.80;;
64208;SDS011;50527;52.414;13.226;2024-03-02T06:01:14;24.30;;;8.82;;
64208;SDS011;50527;52.414;13.226;2024-03-02T06:03:39;25.02;;;8.27;;
64208;SDS011;50527;52.414;13.226;2024-03-02T06:06:05;24.88;;;9.07;;
64208;SDS011;50527;52.414;13.226;2024-03-02T06:08:31;22.85;;;8.57;;
64208;SDS011;50527;52.414;13.226;2024-03-02T06:10:56;29.67;;;8.80;;
64208;SDS011;50527;52.414;13.226;2024-03-02T06:13:22;24.33;;;8.55;;
64208;SDS011;50527;52.414;13.226;2024-03-02T06:15:48;29.52;;;8.82;;
64208;SDS011;50527;52.414;13.226;2024-03-02T06:18:13;24.73;;;8.95;;
64208;SDS011;50527;52.414;13.226;2024-03-02T06:20:39;22.90;;;9.30;;
64208;SDS011;50527;52.414;13.226;2024-03-02T06:23:05;24.30;;;9.23;;
64208;SDS011;50527;52.414;13.226;2024-03-02T06:25:31;28.67;;;9.20;;
64208;SDS011;50527;52.414;13.226;2024-03-02T06:27:56;25.65;;;9.23;;
64208;SDS011;50527;52.414;13.226;2024-03-02T06:30:21;24.35;;;8.70;;
64208;SDS011;50527;52.414;13.226;2024-03-02T06:32:47;23.95;;;9.65;;
64208;SDS011;50527;52.414;13.226;2024-03-02T06:35:12;28.00;;;9.15;;
64208;SDS011;50527;52.414;13.226;2024-03-02T06:37:38;22.20;;;8.98;;
64208;SDS011;50527;52.414;13.226;2024-03-02T06:40:07;26.23;;;8.77;;
64208;SDS011;50527;52.414;13.226;2024-03-02T06:42:33;19.65;;;8.23;;
64208;SDS011;50527;52.414;13.226;2024-03-02T06:44:59;25.42;;;8.80;;
64208;SDS011;50527;52.414;13.226;2024-03-02T06:47:25;24.40;;;9.43;;
64208;SDS011;50527;52.414;13.226;2024-03-02T06:49:50;21.17;;;8.20;;
64208;SDS011;50527;52.414;13.226;2024-03-02T06:52:16;23.35;;;8.57;;
64208;SDS011;50527;52.414;13.226;2024-03-02T06:54:41;21.10;;;8.63;;
64208;SDS011;50527;52.414;13.226;2024-03-02T06:57:07;24.17;;;8.40;;
64208;SDS011;50527;52.414;13.226;2024-03-02T06:59:33;28.73;;;9.48;;
64208;SDS011;50527;52.414;13.226;2024-03-02T07:01:58;27.50;;;9.35;;
64208;SDS011;50527;52.414;13.226;2024-03-02T07:04:24;26.77;;;8.98;;
64208;SDS011;50527;52.414;13.226;2024-03-02T07:06:49;23.95;;;8.98;;
64208;SDS011;50527;52.414;13.226;2024-03-02T07:09:16;29.88;;;9.40;;
64208;SDS011;50527;52.414;13.226;2024-03-02T07:11:41;28.60;;;9.55;;
64208;SDS011;50527;52.414;13.226;2024-03-02T07:14:07;27.30;;;9.07;;
64208;SDS011;50527;52.414;13.226;2024-03-02T07:16:32;25.98;;;9.65;;
64208;SDS011;50527;52.414;13.226;2024-03-02T07:18:59;24.30;;;8.80;;
64208;SDS011;50527;52.414;13.226;2024-03-02T07:21:26;23.42;;;8.68;;
64208;SDS011;50527;52.414;13.226;2024-03-02T07:23:52;24.38;;;8.90;;
64208;SDS011;50527;52.414;13.226;2024-03-02T07:26:18;28.30;;;9.02;;
64208;SDS011;50527;52.414;13.226;2024-03-02T07:28:45;20.08;;;8.60;;
64208;SDS011;50527;52.414;13.226;2024-03-02T07:31:12;23.25;;;9.05;;
64208;SDS011;50527;52.414;13.226;2024-03-02T07:33:38;29.45;;;8.88;;
64208;SDS011;50527;52.414;13.226;2024-03-02T07:36:03;25.80;;;8.98;;
64208;SDS011;50527;52.414;13.226;2024-03-02T07:38:29;24.65;;;8.50;;
64208;SDS011;50527;52.414;13.226;2024-03-02T07:40:55;28.58;;;9.02;;
64208;SDS011;50527;52.414;13.226;2024-03-02T07:43:21;27.35;;;9.05;;
64208;SDS011;50527;52.414;13.226;2024-03-02T07:45:47;23.15;;;9.25;;
64208;SDS011;50527;52.414;13.226;2024-03-02T07:48:12;25.92;;;9.05;;
64208;SDS011;50527;52.414;13.226;2024-03-02T07:50:38;26.48;;;8.98;;
64208;SDS011;50527;52.414;13.226;2024-03-02T07:53:04;27.85;;;8.70;;
64208;SDS011;50527;52.414;13.226;2024-03-02T07:55:30;23.17;;;9.40;;
64208;SDS011;50527;52.414;13.226;2024-03-02T07:57:56;24.65;;;9.23;;
64208;SDS011;50527;52.414;13.226;2024-03-02T08:00:22;27.02;;;8.80;;
64208;SDS011;50527;52.414;13.226;2024-03-02T08:02:48;26.85;;;8.77;;
64208;SDS011;50527;52.414;13.226;2024-03-02T08:05:15;31.48;;;9.98;;
64208;SDS011;50527;52.414;13.226;2024-03-02T08:07:41;26.42;;;9.30;;
64208;SDS011;50527;52.414;13.226;2024-03-02T08:10:09;28.60;;;9.52;;
64208;SDS011;50527;52.414;13.226;2024-03-02T08:12:35;32.90;;;9.40;;
64208;SDS011;50527;52.414;13.226;2024-03-02T08:15:00;24.17;;;9.05;;
64208;SDS011;50527;52.414;13.226;2024-03-02T08:17:25;28.20;;;9.25;;
64208;SDS011;50527;52.414;13.226;2024-03-02T08:19:51;26.90;;;9.32;;
64208;SDS011;50527;52.414;13.226;2024-03-02T08:22:17;25.40;;;8.75;;
64208;SDS011;50527;52.414;13.226;2024-03-02T08:24:43;22.45;;;8.68;;
64208;SDS011;50527;52.414;13.226;2024-03-02T08:27:09;26.23;;;9.27;;
64208;SDS011;50527;52.414;13.226;2024-03-02T08:29:34;26.42;;;9.07;;
64208;SDS011;50527;52.414;13.226;2024-03-02T08:32:00;23.35;;;8.88;;
64208;SDS011;50527;52.414;13.226;2024-03-02T08:34:25;27.73;;;8.57;;
64208;SDS011;50527;52.414;13.226;2024-03-02T08:36:51;22.73;;;8.25;;
64208;SDS011;50527;52.414;13.226;2024-03-02T08:39:17;25.85;;;8.48;;
64208;SDS011;50527;52.414;13.226;2024-03-02T08:41:44;25.58;;;8.65;;
64208;SDS011;50527;52.414;13.226;2024-03-02T08:44:10;25.58;;;8.35;;
64208;SDS011;50527;52.414;13.226;2024-03-02T08:46:37;23.98;;;8.27;;
64208;SDS011;50527;52.414;13.226;2024-03-02T08:49:04;25.20;;;8.20;;
64208;SDS011;50527;52.414;13.226;2024-03-02T08:51:29;25.55;;;8.75;;
64208;SDS011;50527;52.414;13.226;2024-03-02T08:53:58;26.05;;;8.48;;
64208;SDS011;50527;52.414;13.226;2024-03-02T08:56:24;28.85;;;9.32;;
64208;SDS011;50527;52.414;13.226;2024-03-02T08:58:50;26.23;;;8.82;;
64208;SDS011;50527;52.414;13.226;2024-03-02T09:01:16;29.92;;;9.77;;
64208;SDS011;50527;52.414;13.226;2024-03-02T09:03:43;31.75;;;9.23;;
64208;SDS011;50527;52.414;13.226;2024-03-02T09:06:09;30.00;;;9.18;;
64208;SDS011;50527;52.414;13.226;2024-03-02T09:08:35;23.75;;;9.15;;
64208;SDS011;50527;52.414;13.226;2024-03-02T09:11:01;19.20;;;8.38;;
64208;SDS011;50527;52.414;13.226;2024-03-02T09:13:30;20.75;;;8.27;;
64208;SDS011;50527;52.414;13.226;2024-03-02T09:15:56;21.92;;;8.27;;
64208;SDS011;50527;52.414;13.226;2024-03-02T09:18:21;23.95;;;9.10;;
64208;SDS011;50527;52.414;13.226;2024-03-02T09:20:47;21.05;;;8.25;;
64208;SDS011;50527;52.414;13.226;2024-03-02T09:23:12;25.13;;;8.70;;
64208;SDS011;50527;52.414;13.226;2024-03-02T09:25:38;21.95;;;8.50;;
64208;SDS011;50527;52.414;13.226;2024-03-02T09:28:03;26.17;;;8.73;;
64208;SDS011;50527;52.414;13.226;2024-03-02T09:30:29;23.77;;;9.07;;
64208;SDS011;50527;52.414;13.226;2024-03-02T09:32:54;21.77;;;7.85;;
64208;SDS011;50527;52.414;13.226;2024-03-02T09:35:20;27.52;;;8.45;;
64208;SDS011;50527;52.414;13.226;2024-03-02T09:37:45;26.30;;;8.45;;
64208;SDS011;50527;52.414;13.226;2024-03-02T09:40:11;26.40;;;8.18;;
64208;SDS011;50527;52.414;13.226;2024-03-02T09:42:37;24.73;;;8.63;;
64208;SDS011;50527;52.414;13.226;2024-03-02T09:45:03;22.73;;;7.95;;
64208;SDS011;50527;52.414;13.226;2024-03-02T09:47:30;20.48;;;7.57;;
64208;SDS011;50527;52.414;13.226;2024-03-02T09:49:56;22.85;;;7.97;;
64208;SDS011;50527;52.414;13.226;2024-03-02T09:52:24;20.75;;;7.90;;
64208;SDS011;50527;52.414;13.226;2024-03-02T09:54:50;18.38;;;7.20;;
64208;SDS011;50527;52.414;13.226;2024-03-02T09:57:16;19.63;;;7.38;;
64208;SDS011;50527;52.414;13.226;2024-03-02T09:59:41;19.98;;;7.55;;
64208;SDS011;50527;52.414;13.226;2024-03-02T10:02:07;18.50;;;6.97;;
64208;SDS011;50527;52.414;13.226;2024-03-02T10:04:33;15.77;;;6.53;;
64208;SDS011;50527;52.414;13.226;2024-03-02T10:09:38;18.70;;;7.47;;
64208;SDS011;50527;52.414;13.226;2024-03-02T10:12:04;17.42;;;6.65;;
64208;SDS011;50527;52.414;13.226;2024-03-02T10:14:31;17.10;;;6.82;;
64208;SDS011;50527;52.414;13.226;2024-03-02T10:17:01;17.00;;;6.60;;
64208;SDS011;50527;52.414;13.226;2024-03-02T10:21:57;20.65;;;6.75;;
64208;SDS011;50527;52.414;13.226;2024-03-02T10:24:24;17.25;;;6.80;;
64208;SDS011;50527;52.414;13.226;2024-03-02T10:26:50;21.63;;;7.40;;
64208;SDS011;50527;52.414;13.226;2024-03-02T10:29:16;16.30;;;6.60;;
64208;SDS011;50527;52.414;13.226;2024-03-02T10:31:45;18.58;;;7.07;;
64208;SDS011;50527;52.414;13.226;2024-03-02T10:34:11;19.33;;;6.95;;
64208;SDS011;50527;52.414;13.226;2024-03-02T10:36:40;20.35;;;7.15;;
64208;SDS011;50527;52.414;13.226;2024-03-02T10:39:07;17.50;;;6.20;;
64208;SDS011;50527;52.414;13.226;2024-03-02T10:41:36;19.60;;;6.07;;
64208;SDS011;50527;52.414;13.226;2024-03-02T10:44:06;16.00;;;6.43;;
64208;SDS011;50527;52.414;13.226;2024-03-02T10:46:35;16.33;;;6.30;;
64208;SDS011;50527;52.414;13.226;2024-03-02T10:49:02;18.40;;;5.68;;
64208;SDS011;50527;52.414;13.226;2024-03-02T10:51:29;20.60;;;5.70;;
64208;SDS011;50527;52.414;13.226;2024-03-02T10:54:01;15.90;;;6.28;;
64208;SDS011;50527;52.414;13.226;2024-03-02T10:56:28;13.57;;;5.47;;
64208;SDS011;50527;52.414;13.226;2024-03-02T11:01:34;14.40;;;5.78;;
64208;SDS011;50527;52.414;13.226;2024-03-02T11:04:02;15.98;;;6.10;;
64208;SDS011;50527;52.414;13.226;2024-03-02T11:06:30;17.30;;;5.53;;
64208;SDS011;50527;52.414;13.226;2024-03-02T11:09:00;13.40;;;6.05;;
64208;SDS011;50527;52.414;13.226;2024-03-02T11:11:32;14.80;;;5.03;;
64208;SDS011;50527;52.414;13.226;2024-03-02T11:14:01;13.80;;;5.30;;
64208;SDS011;50527;52.414;13.226;2024-03-02T11:16:36;15.65;;;5.97;;
64208;SDS011;50527;52.414;13.226;2024-03-02T11:19:07;14.35;;;5.97;;
64208;SDS011;50527;52.414;13.226;2024-03-02T11:21:35;13.50;;;6.18;;
64208;SDS011;50527;52.414;13.226;2024-03-02T11:26:46;14.25;;;5.75;;
64208;SDS011;50527;52.414;13.226;2024-03-02T11:32:04;16.65;;;5.38;;
64208;SDS011;50527;52.414;13.226;2024-03-02T11:34:33;12.90;;;5.60;;
64208;SDS011;50527;52.414;13.226;2024-03-02T11:37:03;15.35;;;5.93;;
64208;SDS011;50527;52.414;13.226;2024-03-02T11:39:29;15.43;;;5.50;;
64208;SDS011;50527;52.414;13.226;2024-03-02T11:41:55;17.95;;;5.75;;
64208;SDS011;50527;52.414;13.226;2024-03-02T11:44:22;12.70;;;5.30;;
64208;SDS011;50527;52.414;13.226;2024-03-02T11:47:00;16.38;;;5.90;;
64208;SDS011;50527;52.414;13.226;2024-03-02T11:52:04;12.80;;;4.95;;
64208;SDS011;50527;52.414;13.226;2024-03-02T11:54:32;14.93;;;5.25;;
64208;SDS011;50527;52.414;13.226;2024-03-02T11:57:01;14.35;;;5.60;;
64208;SDS011;50527;52.414;13.226;2024-03-02T11:59:28;13.27;;;5.65;;
64208;SDS011;50527;52.414;13.226;2024-03-02T12:01:55;15.45;;;5.40;;
64208;SDS011;50527;52.414;13.226;2024-03-02T12:04:21;16.13;;;6.15;;
64208;SDS011;50527;52.414;13.226;2024-03-02T12:06:48;15.48;;;5.35;;
64208;SDS011;50527;52.414;13.226;2024-03-02T12:11:46;14.50;;;5.60;;
64208;SDS011;50527;52.414;13.226;2024-03-02T12:14:12;12.43;;;5.00;;
64208;SDS011;50527;52.414;13.226;2024-03-02T12:16:38;12.93;;;5.88;;
64208;SDS011;50527;52.414;13.226;2024-03-02T12:19:04;12.68;;;5.28;;
64208;SDS011;50527;52.414;13.226;2024-03-02T12:21:33;13.68;;;5.68;;
64208;SDS011;50527;52.414;13.226;2024-03-02T12:23:59;15.65;;;5.60;;
64208;SDS011;50527;52.414;13.226;2024-03-02T12:26:25;12.13;;;4.88;;
64208;SDS011;50527;52.414;13.226;2024-03-02T12:28:51;15.50;;;5.30;;
64208;SDS011;50527;52.414;13.226;2024-03-02T12:31:17;17.02;;;6.03;;
64208;SDS011;50527;52.414;13.226;2024-03-02T12:33:42;12.57;;;5.32;;
64208;SDS011;50527;52.414;13.226;2024-03-02T12:36:11;13.40;;;5.72;;
64208;SDS011;50527;52.414;13.226;2024-03-02T12:38:38;15.40;;;5.65;;
64208;SDS011;50527;52.414;13.226;2024-03-02T12:41:09;11.63;;;5.28;;
64208;SDS011;50527;52.414;13.226;2024-03-02T12:43:34;13.32;;;5.03;;
64208;SDS011;50527;52.414;13.226;2024-03-02T12:45:59;13.30;;;5.20;;
64208;SDS011;50527;52.414;13.226;2024-03-02T12:48:25;12.32;;;4.72;;
64208;SDS011;50527;52.414;13.226;2024-03-02T12:50:51;12.20;;;4.93;;
64208;SDS011;50527;52.414;13.226;2024-03-02T12:53:17;12.13;;;5.22;;
64208;SDS011;50527;52.414;13.226;2024-03-02T12:55:42;11.55;;;4.93;;
64208;SDS011;50527;52.414;13.226;2024-03-02T12:58:15;13.07;;;4.25;;
64208;SDS011;50527;52.414;13.226;2024-03-02T13:03:07;10.48;;;4.63;;
64208;SDS011;50527;52.414;13.226;2024-03-02T13:05:33;12.23;;;5.13;;
64208;SDS011;50527;52.414;13.226;2024-03-02T13:07:58;12.65;;;4.78;;
64208;SDS011;50527;52.414;13.226;2024-03-02T13:10:28;12.63;;;5.15;;
64208;SDS011;50527;52.414;13.226;2024-03-02T13:12:54;11.88;;;4.93;;
64208;SDS011;50527;52.414;13.226;2024-03-02T13:15:20;13.75;;;5.20;;
64208;SDS011;50527;52.414;13.226;2024-03-02T13:17:46;13.18;;;5.10;;
64208;SDS011;50527;52.414;13.226;2024-03-02T13:20:12;13.20;;;5.20;;
64208;SDS011;50527;52.414;13.226;2024-03-02T13:22:39;13.00;;;5.35;;
64208;SDS011;50527;52.414;13.226;2024-03-02T13:25:04;12.35;;;4.88;;
64208;SDS011;50527;52.414;13.226;2024-03-02T13:27:30;18.00;;;4.93;;
64208;SDS011;50527;52.414;13.226;2024-03-02T13:29:57;12.63;;;5.03;;
64208;SDS011;50527;52.414;13.226;2024-03-02T13:32:23;12.70;;;5.15;;
64208;SDS011;50527;52.414;13.226;2024-03-02T13:34:50;10.90;;;4.35;;
64208;SDS011;50527;52.414;13.226;2024-03-02T13:37:16;15.95;;;4.63;;
64208;SDS011;50527;52.414;13.226;2024-03-02T13:39:42;15.27;;;5.20;;
64208;SDS011;50527;52.414;13.226;2024-03-02T13:42:08;13.15;;;5.30;;
64208;SDS011;50527;52.414;13.226;2024-03-02T13:44:34;13.23;;;4.63;;
64208;SDS011;50527;52.414;13.226;2024-03-02T13:47:00;11.77;;;4.80;;
64208;SDS011;50527;52.414;13.226;2024-03-02T13:49:26;13.98;;;4.68;;
64208;SDS011;50527;52.414;13.226;2024-03-02T13:52:11;9.95;;;4.32;;
64208;SDS011;50527;52.414;13.226;2024-03-02T13:54:41;15.88;;;4.32;;
64208;SDS011;50527;52.414;13.226;2024-03-02T13:57:07;12.10;;;4.60;;
64208;SDS011;50527;52.414;13.226;2024-03-02T13:59:34;12.63;;;4.30;;
64208;SDS011;50527;52.414;13.226;2024-03-02T14:02:00;11.50;;;4.20;;
64208;SDS011;50527;52.414;13.226;2024-03-02T14:04:26;14.02;;;4.20;;
64208;SDS011;50527;52.414;13.226;2024-03-02T14:06:52;11.50;;;3.65;;
64208;SDS011;50527;52.414;13.226;2024-03-02T14:09:18;9.32;;;4.07;;
64208;SDS011;50527;52.414;13.226;2024-03-02T14:11:45;10.57;;;3.92;;
64208;SDS011;50527;52.414;13.226;2024-03-02T14:14:11;9.15;;;3.90;;
64208;SDS011;50527;52.414;13.226;2024-03-02T14:16:36;12.63;;;3.97;;
64208;SDS011;50527;52.414;13.226;2024-03-02T14:19:02;9.77;;;3.72;;
64208;SDS011;50527;52.414;13.226;2024-03-02T14:21:29;13.38;;;3.92;;
64208;SDS011;50527;52.414;13.226;2024-03-02T14:23:55;8.38;;;3.35;;
64208;SDS011;50527;52.414;13.226;2024-03-02T14:26:21;9.13;;;3.45;;
64208;SDS011;50527;52.414;13.226;2024-03-02T14:28:46;9.30;;;3.25;;
64208;SDS011;50527;52.414;13.226;2024-03-02T14:31:12;9.13;;;3.22;;
64208;SDS011;50527;52.414;13.226;2024-03-02T14:33:37;6.97;;;3.42;;
64208;SDS011;50527;52.414;13.226;2024-03-02T14:36:03;8.70;;;3.22;;
64208;SDS011;50527;52.414;13.226;2024-03-02T14:38:29;9.15;;;3.35;;